createdAt,value
2023-01-19T00:01:15.184Z,10.80
2023-01-19T00:04:02.737Z,12.47
2023-01-19T00:06:50.107Z,11.80
2023-01-19T00:09:38.334Z,11.80
2023-01-19T00:12:25.649Z,11.50
2023-01-19T00:15:14.502Z,11.17
2023-01-19T00:18:02.017Z,11.90
2023-01-19T00:20:49.809Z,11.27
2023-01-19T00:23:37.019Z,12.33
2023-01-19T00:26:24.265Z,13.33
2023-01-19T00:29:12.914Z,12.70
2023-01-19T00:32:01.755Z,15.27
2023-01-19T00:34:52.406Z,14.43
2023-01-19T00:37:39.788Z,13.27
2023-01-19T00:40:26.950Z,13.43
2023-01-19T00:43:14.092Z,11.20
2023-01-19T00:46:01.325Z,13.23
2023-01-19T00:48:49.839Z,13.80
2023-01-19T00:51:37.503Z,14.60
2023-01-19T00:54:26.868Z,14.27
2023-01-19T00:57:14.451Z,13.67
2023-01-19T01:00:01.751Z,12.90
2023-01-19T01:02:50.309Z,13.53
2023-01-19T01:05:42.657Z,13.87
2023-01-19T01:08:29.831Z,15.20
2023-01-19T01:11:16.827Z,14.10
2023-01-19T01:14:04.830Z,13.97
2023-01-19T01:16:53.697Z,14.70
2023-01-19T01:19:40.908Z,14.50
2023-01-19T01:22:29.430Z,13.33
2023-01-19T01:25:19.230Z,12.63
2023-01-19T01:28:08.794Z,13.10
2023-01-19T01:30:56.531Z,11.63
2023-01-19T01:33:43.781Z,11.70
2023-01-19T01:36:33.444Z,12.13
2023-01-19T01:39:22.556Z,11.20
2023-01-19T01:42:18.696Z,10.30
2023-01-19T01:45:12.160Z,10.07
2023-01-19T01:48:04.231Z,10.03
2023-01-19T01:51:19.056Z,9.80
2023-01-19T01:54:15.060Z,9.90
2023-01-19T01:57:12.291Z,8.63
2023-01-19T02:00:00.370Z,8.43
2023-01-19T02:02:54.976Z,9.80
2023-01-19T02:05:43.594Z,11.53
2023-01-19T02:08:54.689Z,12.63
2023-01-19T02:12:00.645Z,12.50
2023-01-19T02:14:49.086Z,12.37
2023-01-19T02:17:36.357Z,12.10
2023-01-19T02:20:27.459Z,10.23
2023-01-19T02:23:21.524Z,10.20
2023-01-19T02:26:13.527Z,9.80
2023-01-19T02:29:03.704Z,9.77
2023-01-19T02:31:50.780Z,9.77
2023-01-19T02:34:38.215Z,9.07
2023-01-19T02:37:27.999Z,8.93
2023-01-19T02:40:20.404Z,6.97
2023-01-19T02:43:09.885Z,8.40
2023-01-19T02:45:57.323Z,9.93
2023-01-19T02:48:44.964Z,8.60
2023-01-19T02:51:32.513Z,8.50
2023-01-19T02:54:52.083Z,9.50
2023-01-19T02:57:54.468Z,9.03
2023-01-19T03:00:54.556Z,8.77
2023-01-19T03:03:52.143Z,7.80
2023-01-19T03:06:48.060Z,8.83
2023-01-19T03:09:43.366Z,9.67
2023-01-19T03:12:39.005Z,9.23
2023-01-19T03:15:33.065Z,10.00
2023-01-19T03:18:24.485Z,9.10
2023-01-19T03:21:14.421Z,8.67
2023-01-19T03:24:06.698Z,8.57
2023-01-19T03:27:01.345Z,8.77
2023-01-19T03:29:54.527Z,8.80
2023-01-19T03:32:47.119Z,7.87
2023-01-19T03:35:41.082Z,7.57
2023-01-19T03:38:30.288Z,7.23
2023-01-19T03:41:20.839Z,6.23
2023-01-19T03:44:09.054Z,6.80
2023-01-19T03:46:57.899Z,6.57
2023-01-19T03:49:48.573Z,6.67
2023-01-19T03:52:37.245Z,6.40
2023-01-19T03:55:24.565Z,7.60
2023-01-19T03:58:11.776Z,6.70
2023-01-19T04:00:58.999Z,6.57
2023-01-19T04:03:47.283Z,6.57
2023-01-19T04:06:34.173Z,7.20
2023-01-19T04:09:22.999Z,7.37
2023-01-19T04:12:10.704Z,6.80
2023-01-19T04:14:57.697Z,6.73
2023-01-19T04:17:44.612Z,7.03
2023-01-19T04:20:31.825Z,6.93
2023-01-19T04:23:18.967Z,7.37
2023-01-19T04:26:09.908Z,6.53
2023-01-19T04:28:57.175Z,6.20
2023-01-19T04:31:44.956Z,6.53
2023-01-19T04:34:32.440Z,6.53
2023-01-19T04:37:19.584Z,6.50
2023-01-19T04:40:09.206Z,6.50
2023-01-19T04:42:57.550Z,6.33
2023-01-19T04:45:45.178Z,6.13
2023-01-19T04:48:32.470Z,6.47
2023-01-19T04:51:19.414Z,5.50
2023-01-19T04:54:09.028Z,7.03
2023-01-19T04:56:56.544Z,6.47
2023-01-19T04:59:44.982Z,6.53
2023-01-19T05:02:32.194Z,6.23
2023-01-19T05:05:19.851Z,6.10
2023-01-19T05:08:07.356Z,5.93
2023-01-19T05:10:54.266Z,6.20
2023-01-19T05:13:41.450Z,5.73
2023-01-19T05:16:29.920Z,5.57
2023-01-19T05:19:17.235Z,6.10
2023-01-19T05:22:05.531Z,5.80
2023-01-19T05:24:53.171Z,6.13
2023-01-19T05:27:40.347Z,5.93
2023-01-19T05:30:27.299Z,6.63
2023-01-19T05:33:15.673Z,6.93
2023-01-19T05:36:04.311Z,6.50
2023-01-19T05:38:51.673Z,6.70
2023-01-19T05:41:38.593Z,6.40
2023-01-19T05:44:25.583Z,6.00
2023-01-19T05:47:12.928Z,6.23
2023-01-19T05:50:01.509Z,6.17
2023-01-19T05:52:48.801Z,6.53
2023-01-19T05:55:36.349Z,5.80
2023-01-19T05:58:23.822Z,6.60
2023-01-19T06:01:12.098Z,6.57
2023-01-19T06:03:59.362Z,7.80
2023-01-19T06:06:49.005Z,8.37
2023-01-19T06:09:36.406Z,7.33
2023-01-19T06:12:23.534Z,6.70
2023-01-19T06:15:11.504Z,7.43
2023-01-19T06:17:58.562Z,7.30
2023-01-19T06:20:45.805Z,7.10
2023-01-19T06:23:36.873Z,7.47
2023-01-19T06:26:24.263Z,5.90
2023-01-19T06:29:12.280Z,6.23
2023-01-19T06:31:59.790Z,6.20
2023-01-19T06:34:47.138Z,5.27
2023-01-19T06:37:34.219Z,6.03
2023-01-19T06:40:23.022Z,6.70
2023-01-19T06:43:11.090Z,6.40
2023-01-19T06:45:58.568Z,5.33
2023-01-19T06:48:45.620Z,5.90
2023-01-19T06:51:32.847Z,5.60
2023-01-19T06:54:20.224Z,5.90
2023-01-19T06:57:08.546Z,5.00
2023-01-19T06:59:55.907Z,5.73
2023-01-19T07:02:44.041Z,5.50
2023-01-19T07:05:30.938Z,6.17
2023-01-19T07:08:18.053Z,6.00
2023-01-19T07:11:26.904Z,5.83
2023-01-19T07:14:17.606Z,5.80
2023-01-19T07:17:04.824Z,5.77
2023-01-19T07:19:52.095Z,6.37
2023-01-19T07:22:39.137Z,7.00
2023-01-19T07:25:27.020Z,6.40
2023-01-19T07:28:16.462Z,5.80
2023-01-19T07:31:05.774Z,5.93
2023-01-19T07:33:52.804Z,6.40
2023-01-19T07:36:39.821Z,6.60
2023-01-19T07:39:27.121Z,6.83
2023-01-19T07:42:14.363Z,7.33
2023-01-19T07:45:02.110Z,7.13
2023-01-19T07:47:51.841Z,6.57
2023-01-19T07:50:38.853Z,6.40
2023-01-19T07:53:25.932Z,7.07
2023-01-19T07:56:13.122Z,6.60
2023-01-19T07:59:00.562Z,6.43
2023-01-19T08:01:47.689Z,6.03
2023-01-19T08:04:36.021Z,6.40
2023-01-19T08:07:23.340Z,6.33
2023-01-19T08:10:12.369Z,6.93
2023-01-19T08:13:00.073Z,7.30
2023-01-19T08:15:51.374Z,7.87
2023-01-19T08:18:38.396Z,6.93
2023-01-19T08:21:27.113Z,6.67
2023-01-19T08:24:21.463Z,6.93
2023-01-19T08:27:09.915Z,6.87
2023-01-19T08:29:57.058Z,6.47
2023-01-19T08:32:44.224Z,7.03
2023-01-19T08:35:31.516Z,7.23
2023-01-19T08:38:20.644Z,6.73
2023-01-19T08:41:07.942Z,6.60
2023-01-19T08:43:54.958Z,6.80
2023-01-19T08:46:42.225Z,6.60
2023-01-19T08:49:29.367Z,7.43
2023-01-19T08:52:16.479Z,9.47
2023-01-19T08:55:05.826Z,9.77
2023-01-19T08:57:53.736Z,7.67
2023-01-19T09:00:41.321Z,8.33
2023-01-19T09:03:28.653Z,8.23
2023-01-19T09:06:18.536Z,7.40
2023-01-19T09:09:06.108Z,8.87
2023-01-19T09:11:58.096Z,8.70
2023-01-19T09:14:45.425Z,7.67
2023-01-19T09:17:32.567Z,7.77
2023-01-19T09:20:19.845Z,6.97
2023-01-19T09:23:07.366Z,7.03
2023-01-19T09:25:59.502Z,7.50
2023-01-19T09:28:48.259Z,6.97
2023-01-19T09:31:35.659Z,6.23
2023-01-19T09:34:23.217Z,6.40
2023-01-19T09:37:10.768Z,7.03
2023-01-19T09:39:57.931Z,6.67
2023-01-19T09:42:50.006Z,6.87
2023-01-19T09:45:47.127Z,7.93
2023-01-19T09:48:45.976Z,6.67
2023-01-19T09:51:38.008Z,6.97
2023-01-19T09:54:34.199Z,6.37
2023-01-19T09:57:23.241Z,6.30
2023-01-19T10:00:17.549Z,7.10
2023-01-19T10:03:16.327Z,7.30
2023-01-19T10:06:07.550Z,11.50
2023-01-19T10:09:04.174Z,9.87
2023-01-19T10:11:59.140Z,9.83
2023-01-19T10:14:53.615Z,7.83
2023-01-19T10:17:51.270Z,7.00
2023-01-19T10:20:46.395Z,6.10
2023-01-19T10:23:46.063Z,5.50
2023-01-19T10:26:36.417Z,5.60
2023-01-19T10:29:27.949Z,5.37
2023-01-19T10:32:19.926Z,5.23
2023-01-19T10:35:21.816Z,4.73
2023-01-19T10:38:16.219Z,5.90
2023-01-19T10:41:08.870Z,5.60
2023-01-19T10:44:05.512Z,5.00
2023-01-19T10:46:54.533Z,4.77
2023-01-19T10:49:43.665Z,4.60
2023-01-19T10:52:34.956Z,4.80
2023-01-19T10:55:30.497Z,5.30
2023-01-19T10:58:31.645Z,4.90
2023-01-19T11:01:22.253Z,5.07
2023-01-19T11:04:29.855Z,4.87
2023-01-19T11:07:21.395Z,5.00
2023-01-19T11:10:24.923Z,4.27
2023-01-19T11:13:15.998Z,4.67
2023-01-19T11:16:11.603Z,5.20
2023-01-19T11:19:02.129Z,15.07
2023-01-19T11:21:49.465Z,9.87
2023-01-19T11:24:39.689Z,8.03
2023-01-19T11:27:27.349Z,7.27
2023-01-19T11:30:21.995Z,5.97
2023-01-19T11:33:26.172Z,8.27
2023-01-19T11:36:21.009Z,10.63
2023-01-19T11:39:24.683Z,8.30
2023-01-19T11:42:14.342Z,7.83
2023-01-19T11:45:11.367Z,6.60
2023-01-19T11:48:04.316Z,6.27
2023-01-19T11:50:51.786Z,5.53
2023-01-19T11:53:39.394Z,6.73
2023-01-19T11:56:30.016Z,5.90
2023-01-19T11:59:17.239Z,6.10
2023-01-19T12:02:17.093Z,5.80
2023-01-19T12:05:12.775Z,5.93
2023-01-19T12:08:05.354Z,6.63
2023-01-19T12:10:57.392Z,6.17
2023-01-19T12:13:45.400Z,6.33
2023-01-19T12:16:35.606Z,5.77
2023-01-19T12:19:27.881Z,6.40
2023-01-19T12:22:18.580Z,6.60
2023-01-19T12:25:17.450Z,5.93
2023-01-19T12:28:06.525Z,6.47
2023-01-19T12:30:54.085Z,5.87
2023-01-19T12:33:42.231Z,6.97
2023-01-19T12:36:40.356Z,6.60
2023-01-19T12:39:28.779Z,6.80
2023-01-19T12:42:20.432Z,8.30
2023-01-19T12:45:14.766Z,11.33
2023-01-19T12:48:03.034Z,9.13
2023-01-19T12:50:50.528Z,11.23
2023-01-19T12:53:39.061Z,10.50
2023-01-19T12:56:32.886Z,9.40
2023-01-19T12:59:27.262Z,14.30
2023-01-19T13:02:48.842Z,11.10
2023-01-19T13:06:00.036Z,15.37
2023-01-19T13:09:01.767Z,14.00
2023-01-19T13:12:29.599Z,10.73
2023-01-19T13:15:35.863Z,13.03
2023-01-19T13:18:26.344Z,8.07
2023-01-19T13:21:14.237Z,6.80
2023-01-19T13:24:10.956Z,6.43
2023-01-19T13:27:03.382Z,6.00
2023-01-19T13:29:52.791Z,6.10
2023-01-19T13:32:43.499Z,6.20
2023-01-19T13:35:30.688Z,6.07
2023-01-19T13:38:18.331Z,5.40
2023-01-19T13:41:06.233Z,5.13
2023-01-19T13:44:01.357Z,5.70
2023-01-19T13:46:50.759Z,5.37
2023-01-19T13:49:41.355Z,5.93
2023-01-19T13:52:30.509Z,6.67
2023-01-19T13:55:20.458Z,6.23
2023-01-19T13:58:22.485Z,6.17
2023-01-19T14:01:23.120Z,7.20
2023-01-19T14:04:30.283Z,6.70
2023-01-19T14:07:26.432Z,6.93
2023-01-19T14:10:20.325Z,6.60
2023-01-19T14:13:14.907Z,8.07
2023-01-19T14:16:07.320Z,7.33
2023-01-19T14:19:02.354Z,7.07
2023-01-19T14:22:03.096Z,6.30
2023-01-19T14:24:50.232Z,5.37
2023-01-19T14:27:39.269Z,7.57
2023-01-19T14:30:27.021Z,13.23
2023-01-19T14:33:36.273Z,15.13
2023-01-19T14:36:36.260Z,17.00
2023-01-19T14:39:27.849Z,17.93
2023-01-19T14:42:24.123Z,17.73
2023-01-19T14:45:21.515Z,17.37
2023-01-19T14:48:18.206Z,13.30
2023-01-19T14:51:06.860Z,10.13
2023-01-19T14:53:58.887Z,8.90
2023-01-19T14:56:47.899Z,7.40
2023-01-19T14:59:35.315Z,8.90
2023-01-19T15:02:22.612Z,8.57
2023-01-19T15:05:10.939Z,8.60
2023-01-19T15:07:58.347Z,7.10
2023-01-19T15:10:46.562Z,7.27
2023-01-19T15:13:35.182Z,7.07
2023-01-19T15:16:23.074Z,6.97
2023-01-19T15:19:13.449Z,7.37
2023-01-19T15:22:00.475Z,9.03
2023-01-19T15:24:47.658Z,10.43
2023-01-19T15:27:34.686Z,10.07
2023-01-19T15:30:27.863Z,13.00
2023-01-19T15:33:18.730Z,13.43
2023-01-19T15:36:06.680Z,13.30
2023-01-19T15:38:53.874Z,9.70
2023-01-19T15:41:41.531Z,8.00
2023-01-19T15:44:28.610Z,8.60
2023-01-19T15:47:17.244Z,7.33
2023-01-19T15:50:05.356Z,7.97
2023-01-19T15:52:52.686Z,7.93
2023-01-19T15:55:39.780Z,8.90
2023-01-19T15:58:28.425Z,7.97
2023-01-19T16:01:18.175Z,9.73
2023-01-19T16:04:11.120Z,11.67
2023-01-19T16:06:58.252Z,10.30
2023-01-19T16:09:45.288Z,9.30
2023-01-19T16:12:32.373Z,7.47
2023-01-19T16:15:20.618Z,7.00
2023-01-19T16:18:07.849Z,6.47
2023-01-19T16:20:56.598Z,7.63
2023-01-19T16:23:44.050Z,6.83
2023-01-19T16:26:34.442Z,6.60
2023-01-19T16:29:21.825Z,6.60
2023-01-19T16:32:08.868Z,7.50
2023-01-19T16:34:56.461Z,7.57
2023-01-19T16:37:45.264Z,6.60
2023-01-19T16:40:32.674Z,6.40
2023-01-19T16:43:19.861Z,6.37
2023-01-19T16:46:07.393Z,6.17
2023-01-19T16:48:55.034Z,5.90
2023-01-19T16:51:42.461Z,6.70
2023-01-19T16:54:32.188Z,6.83
2023-01-19T16:57:19.109Z,7.30
2023-01-19T17:00:10.610Z,7.70
2023-01-19T17:02:58.164Z,6.97
2023-01-19T17:05:51.082Z,8.77
2023-01-19T17:08:39.354Z,9.43
2023-01-19T17:11:30.448Z,7.57
2023-01-19T17:14:21.428Z,8.73
2023-01-19T17:17:09.420Z,8.77
2023-01-19T17:19:56.765Z,9.17
2023-01-19T17:23:05.130Z,9.90
2023-01-19T17:25:55.998Z,9.83
2023-01-19T17:28:45.375Z,9.20
2023-01-19T17:31:33.493Z,9.53
2023-01-19T17:34:20.522Z,9.37
2023-01-19T17:37:07.755Z,7.10
2023-01-19T17:39:56.450Z,6.53
2023-01-19T17:42:43.766Z,7.00
2023-01-19T17:45:32.386Z,6.40
2023-01-19T17:48:20.327Z,7.27
2023-01-19T17:51:10.253Z,10.40
2023-01-19T17:53:58.304Z,13.27
2023-01-19T17:56:45.593Z,17.50
2023-01-19T17:59:33.408Z,15.93
2023-01-19T18:02:24.400Z,16.30
2023-01-19T18:05:14.219Z,11.60
2023-01-19T18:08:01.276Z,8.97
2023-01-19T18:10:55.599Z,9.43
2023-01-19T18:13:45.337Z,8.80
2023-01-19T18:16:32.582Z,7.53
2023-01-19T18:19:22.515Z,7.33
2023-01-19T18:22:09.946Z,6.80
2023-01-19T18:24:57.311Z,6.43
2023-01-19T18:27:44.366Z,6.47
2023-01-19T18:30:31.421Z,7.47
2023-01-19T18:33:18.644Z,8.37
2023-01-19T18:36:08.679Z,7.77
2023-01-19T18:38:55.794Z,9.40
2023-01-19T18:41:42.904Z,7.87
2023-01-19T18:44:30.292Z,6.97
2023-01-19T18:47:17.756Z,7.20
2023-01-19T18:50:04.918Z,6.57
2023-01-19T18:52:53.518Z,6.53
2023-01-19T18:55:40.872Z,6.87
2023-01-19T18:58:29.335Z,6.77
2023-01-19T19:01:24.203Z,7.00
2023-01-19T19:04:11.585Z,7.30
2023-01-19T19:06:58.605Z,8.07
2023-01-19T19:09:47.254Z,10.33
2023-01-19T19:12:34.523Z,8.30
2023-01-19T19:15:21.893Z,8.00
2023-01-19T19:18:11.264Z,7.47
2023-01-19T19:20:58.668Z,7.37
2023-01-19T19:23:51.171Z,7.67
2023-01-19T19:26:39.979Z,8.33
2023-01-19T19:29:28.441Z,7.10
2023-01-19T19:32:20.459Z,7.13
2023-01-19T19:35:08.163Z,6.73
2023-01-19T19:37:57.671Z,7.07
2023-01-19T19:40:44.804Z,6.30
2023-01-19T19:43:35.104Z,6.70
2023-01-19T19:46:24.424Z,7.27
2023-01-19T19:49:11.707Z,7.13
2023-01-19T19:51:59.027Z,7.60
2023-01-19T19:54:49.300Z,7.27
2023-01-19T19:57:36.395Z,7.00
2023-01-19T20:00:25.303Z,5.70
2023-01-19T20:03:13.546Z,6.73
2023-01-19T20:06:05.160Z,6.00
2023-01-19T20:08:54.544Z,5.03
2023-01-19T20:11:42.726Z,4.77
2023-01-19T20:14:29.976Z,5.20
2023-01-19T20:17:19.132Z,4.80
2023-01-19T20:20:07.769Z,4.67
2023-01-19T20:22:55.310Z,5.60
2023-01-19T20:25:42.317Z,5.00
2023-01-19T20:28:29.341Z,5.20
2023-01-19T20:31:20.218Z,5.27
2023-01-19T20:34:11.168Z,4.90
2023-01-19T20:36:58.369Z,4.67
2023-01-19T20:39:45.582Z,4.30
2023-01-19T20:42:33.061Z,5.93
2023-01-19T20:45:20.815Z,5.77
2023-01-19T20:48:08.300Z,5.27
2023-01-19T20:51:01.567Z,5.97
2023-01-19T20:53:49.218Z,5.57
2023-01-19T20:56:36.639Z,5.30
2023-01-19T20:59:24.701Z,5.47
2023-01-19T21:02:14.281Z,5.13
2023-01-19T21:05:01.593Z,5.07
2023-01-19T21:07:50.114Z,5.60
2023-01-19T21:10:37.605Z,5.80
2023-01-19T21:13:24.603Z,5.33
2023-01-19T21:16:11.863Z,6.10
2023-01-19T21:18:59.355Z,6.40
2023-01-19T21:21:46.731Z,6.20
2023-01-19T21:24:35.201Z,5.73
2023-01-19T21:27:22.651Z,5.97
2023-01-19T21:30:11.826Z,5.97
2023-01-19T21:32:59.215Z,5.70
2023-01-19T21:35:52.522Z,5.80
2023-01-19T21:38:40.499Z,6.07
2023-01-19T21:41:30.974Z,6.07
2023-01-19T21:44:18.329Z,5.83
2023-01-19T21:47:09.032Z,5.67
2023-01-19T21:49:56.183Z,6.30
2023-01-19T21:52:44.143Z,6.47
2023-01-19T21:55:31.368Z,6.40
2023-01-19T21:58:20.036Z,5.93
2023-01-19T22:01:10.949Z,7.30
2023-01-19T22:03:59.708Z,7.40
2023-01-19T22:06:47.170Z,7.77
2023-01-19T22:09:35.731Z,7.07
2023-01-19T22:12:23.095Z,7.27
2023-01-19T22:15:12.883Z,7.80
2023-01-19T22:18:00.236Z,7.00
2023-01-19T22:20:47.348Z,6.90
2023-01-19T22:23:34.492Z,7.33
2023-01-19T22:26:22.544Z,7.87
2023-01-19T22:29:11.166Z,7.90
2023-01-19T22:31:59.599Z,7.07
2023-01-19T22:34:48.376Z,8.10
2023-01-19T22:37:37.020Z,7.33
2023-01-19T22:40:24.326Z,7.20
2023-01-19T22:43:11.408Z,7.43
2023-01-19T22:45:59.192Z,8.00
2023-01-19T22:48:48.570Z,6.93
2023-01-19T22:51:36.718Z,6.37
2023-01-19T22:54:24.059Z,6.57
2023-01-19T22:57:11.963Z,6.37
2023-01-19T22:59:59.454Z,6.83
2023-01-19T23:02:46.882Z,7.80
2023-01-19T23:05:38.822Z,7.60
2023-01-19T23:08:25.845Z,8.40
2023-01-19T23:11:16.421Z,8.03
2023-01-19T23:14:04.072Z,8.17
2023-01-19T23:16:51.159Z,8.00
2023-01-19T23:19:38.414Z,7.80
2023-01-19T23:22:26.914Z,6.60
2023-01-19T23:25:14.148Z,7.83
2023-01-19T23:28:01.545Z,7.53
2023-01-19T23:30:48.681Z,8.40
2023-01-19T23:33:35.675Z,7.03
2023-01-19T23:36:25.497Z,7.73
2023-01-19T23:39:17.891Z,7.90
2023-01-19T23:42:08.063Z,8.13
2023-01-19T23:44:55.361Z,8.13
2023-01-19T23:47:44.056Z,7.43
2023-01-19T23:50:31.563Z,7.70
2023-01-19T23:53:18.992Z,8.63
2023-01-19T23:56:18.225Z,7.60
2023-01-19T23:59:08.268Z,7.10
